Time;durP1;ratioP1;P1;durP2;ratioP2;P2;SDS_P1;SDS_P2;PMS_P1;PMS_P2;Temp;Humidity;BMP_temperature;BMP_pressure;BME280_temperature;BME280_humidity;BME280_pressure;Samples;Min_cycle;Max_cycle;Signal;HPM_P1;HPM_P2
2023/01/23 00:00:07;;;;;;;12.07;10.98;;;;;;;;;;524286;28;1565;-63
2023/01/23 00:00:22;;;;;;;12.30;11.20;;;;;;;;;;523590;28;1093;-63
2023/01/23 00:00:40;;;;;;;12.50;11.40;;;;;;;;;;524870;28;1407;-63
2023/01/23 00:00:56;;;;;;;12.32;11.23;;;;;;;;;;522964;28;1303;-63
2023/01/23 00:01:18;;;;;;;11.98;10.88;;;;;;;;;;522912;28;1329;-64
2023/01/23 00:01:34;;;;;;;11.98;10.88;;;;;;;;;;524275;28;1430;-64
2023/01/23 00:01:49;;;;;;;12.15;11.05;;;;;;;;;;523727;28;1208;-64
2023/01/23 00:02:05;;;;;;;12.53;11.33;;;;;;;;;;526336;28;1217;-64
2023/01/23 00:02:20;;;;;;;12.53;11.33;;;;;;;;;;524891;28;1424;-64
2023/01/23 00:02:35;;;;;;;12.50;11.38;;;;;;;;;;525110;28;1311;-64
2023/01/23 00:02:50;;;;;;;12.20;11.10;;;;;;;;;;521955;28;1187;-64
2023/01/23 00:03:06;;;;;;;11.90;10.80;;;;;;;;;;521615;28;1089;-64
2023/01/23 00:03:21;;;;;;;11.57;10.57;;;;;;;;;;522690;28;1250;-63
2023/01/23 00:03:37;;;;;;;11.87;10.87;;;;;;;;;;522832;28;1028;-63
2023/01/23 00:03:54;;;;;;;12.40;11.30;;;;;;;;;;521906;28;1148;-63
2023/01/23 00:04:12;;;;;;;12.18;11.07;;;;;;;;;;521013;28;1617;-63
2023/01/23 00:04:27;;;;;;;12.30;11.20;;;;;;;;;;523078;28;1123;-63
2023/01/23 00:04:42;;;;;;;12.53;11.40;;;;;;;;;;524110;28;1090;-63
2023/01/23 00:04:58;;;;;;;12.20;11.10;;;;;;;;;;524660;28;1148;-63
2023/01/23 00:05:13;;;;;;;12.00;11.00;;;;;;;;;;523863;28;1347;-63
2023/01/23 00:05:29;;;;;;;11.80;10.80;;;;;;;;;;525343;28;1281;-63
2023/01/23 00:05:44;;;;;;;11.90;10.88;;;;;;;;;;525427;28;1086;-63
2023/01/23 00:06:01;;;;;;;12.30;11.20;;;;;;;;;;525444;28;1300;-64
2023/01/23 00:06:17;;;;;;;12.48;11.38;;;;;;;;;;525832;28;1906;-63
2023/01/23 00:06:32;;;;;;;12.27;11.17;;;;;;;;;;525113;28;1408;-63
2023/01/23 00:06:49;;;;;;;12.07;10.98;;;;;;;;;;525798;28;1140;-63
2023/01/23 00:07:04;;;;;;;12.30;11.15;;;;;;;;;;524265;28;1015;-63
2023/01/23 00:07:20;;;;;;;12.05;10.95;;;;;;;;;;522487;28;1364;-63
2023/01/23 00:07:35;;;;;;;11.90;10.80;;;;;;;;;;523512;28;1171;-63
2023/01/23 00:07:50;;;;;;;12.10;11.00;;;;;;;;;;521882;28;1191;-63
2023/01/23 00:08:05;;;;;;;12.20;11.10;;;;;;;;;;523862;28;1092;-63
2023/01/23 00:08:21;;;;;;;12.02;10.95;;;;;;;;;;524485;28;1332;-64
2023/01/23 00:08:37;;;;;;;11.57;10.57;;;;;;;;;;523723;28;1353;-63
2023/01/23 00:08:52;;;;;;;11.57;10.57;;;;;;;;;;520439;28;1259;-64
2023/01/23 00:09:08;;;;;;;12.15;11.05;;;;;;;;;;522193;28;1126;-63
2023/01/23 00:09:24;;;;;;;12.32;11.23;;;;;;;;;;523441;28;1157;-63
2023/01/23 00:09:39;;;;;;;12.40;11.30;;;;;;;;;;522015;28;1169;-63
2023/01/23 00:09:54;;;;;;;11.80;10.70;;;;;;;;;;523446;28;1419;-63
2023/01/23 00:10:10;;;;;;;11.73;10.63;;;;;;;;;;522749;28;1145;-64
2023/01/23 00:10:25;;;;;;;12.23;11.13;;;;;;;;;;521183;28;1345;-63
2023/01/23 00:10:41;;;;;;;11.77;10.77;;;;;;;;;;519997;28;1335;-64
2023/01/23 00:10:57;;;;;;;11.67;10.67;;;;;;;;;;521590;28;1113;-63
2023/01/23 00:11:19;;;;;;;12.05;10.95;;;;;;;;;;521313;28;1323;-63
2023/01/23 00:11:34;;;;;;;12.57;11.48;;;;;;;;;;521522;28;1263;-64
2023/01/23 00:11:49;;;;;;;12.23;11.13;;;;;;;;;;523598;28;1312;-63
2023/01/23 00:12:05;;;;;;;11.60;10.60;;;;;;;;;;523602;28;1370;-64
2023/01/23 00:12:20;;;;;;;11.68;10.57;;;;;;;;;;521321;28;1489;-63
2023/01/23 00:12:36;;;;;;;11.60;10.50;;;;;;;;;;520807;28;1268;-64
2023/01/23 00:12:53;;;;;;;11.60;10.60;;;;;;;;;;522733;28;1223;-64
2023/01/23 00:13:08;;;;;;;12.20;11.10;;;;;;;;;;522015;28;1503;-63
2023/01/23 00:13:23;;;;;;;12.07;10.97;;;;;;;;;;518369;28;1314;-64
2023/01/23 00:13:39;;;;;;;11.47;10.47;;;;;;;;;;519793;28;1426;-65
2023/01/23 00:13:55;;;;;;;11.38;10.35;;;;;;;;;;521572;28;1266;-64
2023/01/23 00:14:11;;;;;;;11.63;10.60;;;;;;;;;;520697;28;1410;-64
2023/01/23 00:14:26;;;;;;;12.02;10.93;;;;;;;;;;521631;28;1141;-64
2023/01/23 00:14:42;;;;;;;11.97;10.87;;;;;;;;;;522317;28;1144;-64
2023/01/23 00:14:57;;;;;;;11.70;10.60;;;;;;;;;;519893;28;1250;-64
2023/01/23 00:15:12;;;;;;;11.53;10.43;;;;;;;;;;521472;28;1413;-64
2023/01/23 00:15:27;;;;;;;11.80;10.70;;;;;;;;;;521000;28;1460;-64
2023/01/23 00:15:43;;;;;;;11.80;10.70;;;;;;;;;;521952;28;1235;-64
2023/01/23 00:16:01;;;;;;;12.00;10.90;;;;;;;;;;520896;28;1190;-64
2023/01/23 00:16:20;;;;;;;12.20;11.10;;;;;;;;;;522940;28;1373;-64
2023/01/23 00:16:35;;;;;;;11.80;10.80;;;;;;;;;;523612;28;1029;-64
2023/01/23 00:16:50;;;;;;;11.90;10.80;;;;;;;;;;519598;28;1194;-64
2023/01/23 00:17:05;;;;;;;12.07;10.97;;;;;;;;;;521256;28;1453;-64
2023/01/23 00:17:21;;;;;;;11.90;10.90;;;;;;;;;;520920;28;1187;-64
2023/01/23 00:17:36;;;;;;;11.87;10.87;;;;;;;;;;521962;28;1126;-63
2023/01/23 00:17:52;;;;;;;12.17;11.07;;;;;;;;;;524417;28;1226;-64
2023/01/23 00:18:07;;;;;;;12.57;11.38;;;;;;;;;;523548;28;1240;-64
2023/01/23 00:18:23;;;;;;;12.50;11.30;;;;;;;;;;525466;28;1188;-63
2023/01/23 00:18:38;;;;;;;12.07;10.97;;;;;;;;;;524172;28;1459;-63
2023/01/23 00:18:53;;;;;;;11.60;10.60;;;;;;;;;;523004;28;1283;-64
2023/01/23 00:19:09;;;;;;;11.50;10.50;;;;;;;;;;522730;28;1138;-63
2023/01/23 00:19:24;;;;;;;11.93;10.83;;;;;;;;;;522904;28;1275;-64
2023/01/23 00:19:40;;;;;;;12.15;11.05;;;;;;;;;;523831;28;1257;-64
2023/01/23 00:19:55;;;;;;;11.50;10.50;;;;;;;;;;525439;28;1175;-64
2023/01/23 00:20:11;;;;;;;11.07;10.07;;;;;;;;;;526262;28;1178;-63
2023/01/23 00:20:27;;;;;;;10.57;9.68;;;;;;;;;;524959;27;1277;-63
2023/01/23 00:20:42;;;;;;;10.33;9.43;;;;;;;;;;525110;28;1285;-63
2023/01/23 00:20:58;;;;;;;10.30;9.40;;;;;;;;;;525930;28;1214;-63
2023/01/23 00:21:15;;;;;;;10.40;9.50;;;;;;;;;;525232;28;1150;-63
2023/01/23 00:21:30;;;;;;;10.35;9.45;;;;;;;;;;523736;28;1081;-63
2023/01/23 00:21:46;;;;;;;10.20;9.30;;;;;;;;;;523574;28;1325;-63
2023/01/23 00:22:01;;;;;;;10.20;9.30;;;;;;;;;;523642;28;1090;-63
2023/01/23 00:22:16;;;;;;;10.63;9.63;;;;;;;;;;521606;28;1271;-64
2023/01/23 00:22:31;;;;;;;10.80;9.82;;;;;;;;;;521346;28;1161;-63
2023/01/23 00:22:47;;;;;;;10.60;9.70;;;;;;;;;;522168;28;1471;-63
2023/01/23 00:23:02;;;;;;;10.77;9.87;;;;;;;;;;521519;28;1300;-64
2023/01/23 00:23:17;;;;;;;10.93;9.93;;;;;;;;;;519218;28;1314;-63
2023/01/23 00:23:33;;;;;;;10.80;9.80;;;;;;;;;;516812;28;1209;-63
2023/01/23 00:23:53;;;;;;;11.07;10.07;;;;;;;;;;519710;28;1138;-64
2023/01/23 00:24:11;;;;;;;11.15;10.15;;;;;;;;;;520657;28;1253;-64
2023/01/23 00:24:26;;;;;;;10.90;9.90;;;;;;;;;;522189;28;1212;-63
2023/01/23 00:24:41;;;;;;;10.90;9.90;;;;;;;;;;519251;28;1115;-64
2023/01/23 00:24:56;;;;;;;10.83;9.83;;;;;;;;;;522877;28;1201;-64
2023/01/23 00:25:12;;;;;;;10.73;9.73;;;;;;;;;;522878;28;1241;-64
2023/01/23 00:25:27;;;;;;;10.55;9.60;;;;;;;;;;525927;28;1014;-64
2023/01/23 00:25:42;;;;;;;10.80;9.80;;;;;;;;;;523239;28;1203;-64
2023/01/23 00:26:06;;;;;;;10.73;9.73;;;;;;;;;;522496;28;1378;-64
2023/01/23 00:26:25;;;;;;;10.38;9.48;;;;;;;;;;523403;28;1160;-64
2023/01/23 00:26:40;;;;;;;10.40;9.50;;;;;;;;;;525134;28;1415;-65
2023/01/23 00:26:56;;;;;;;10.50;9.60;;;;;;;;;;524437;28;1257;-64
2023/01/23 00:27:11;;;;;;;10.50;9.60;;;;;;;;;;527671;27;1097;-63
2023/01/23 00:27:26;;;;;;;10.63;9.70;;;;;;;;;;526594;27;1229;-64
2023/01/23 00:27:41;;;;;;;10.80;9.80;;;;;;;;;;525330;28;1140;-63
2023/01/23 00:27:57;;;;;;;10.50;9.55;;;;;;;;;;523373;28;1227;-64
2023/01/23 00:28:12;;;;;;;10.30;9.40;;;;;;;;;;524088;28;1207;-64
2023/01/23 00:28:27;;;;;;;10.47;9.57;;;;;;;;;;523973;28;1058;-63
2023/01/23 00:28:44;;;;;;;10.63;9.73;;;;;;;;;;522362;28;1161;-64
2023/01/23 00:29:01;;;;;;;10.48;9.57;;;;;;;;;;521175;28;1279;-64
2023/01/23 00:29:16;;;;;;;10.40;9.50;;;;;;;;;;518798;28;1554;-64
2023/01/23 00:29:32;;;;;;;10.20;9.30;;;;;;;;;;520075;28;1531;-63
2023/01/23 00:29:47;;;;;;;10.18;9.27;;;;;;;;;;519932;28;1228;-64
2023/01/23 00:30:03;;;;;;;10.50;9.53;;;;;;;;;;523989;28;1121;-64
2023/01/23 00:30:19;;;;;;;10.40;9.50;;;;;;;;;;522423;28;1300;-64
2023/01/23 00:30:34;;;;;;;10.33;9.43;;;;;;;;;;524108;28;1153;-64
2023/01/23 00:30:49;;;;;;;10.60;9.60;;;;;;;;;;519537;28;1316;-64
2023/01/23 00:31:08;;;;;;;10.45;9.45;;;;;;;;;;521563;28;1417;-64
2023/01/23 00:31:29;;;;;;;10.55;9.65;;;;;;;;;;524274;28;1297;-64
2023/01/23 00:31:45;;;;;;;10.15;9.25;;;;;;;;;;524518;28;1017;-64
2023/01/23 00:32:00;;;;;;;10.13;9.23;;;;;;;;;;523460;28;1403;-64
2023/01/23 00:32:15;;;;;;;10.30;9.40;;;;;;;;;;523634;28;1175;-63
2023/01/23 00:32:31;;;;;;;10.20;9.30;;;;;;;;;;520825;28;1210;-64
2023/01/23 00:32:46;;;;;;;10.10;9.20;;;;;;;;;;522944;28;1223;-64
2023/01/23 00:33:01;;;;;;;10.27;9.30;;;;;;;;;;522801;28;1302;-64
2023/01/23 00:33:16;;;;;;;9.95;9.05;;;;;;;;;;521265;28;1347;-64
2023/01/23 00:33:32;;;;;;;9.90;9.00;;;;;;;;;;524018;28;1148;-64
2023/01/23 00:33:47;;;;;;;9.88;8.98;;;;;;;;;;522303;28;1140;-64
2023/01/23 00:34:06;;;;;;;9.70;8.90;;;;;;;;;;523455;28;1487;-64
2023/01/23 00:34:21;;;;;;;10.18;9.27;;;;;;;;;;523405;28;1171;-64
2023/01/23 00:34:37;;;;;;;9.97;9.07;;;;;;;;;;524504;28;1236;-64
2023/01/23 00:34:52;;;;;;;9.50;8.60;;;;;;;;;;524050;28;1112;-64
2023/01/23 00:35:07;;;;;;;9.35;8.55;;;;;;;;;;523719;28;1677;-64
2023/01/23 00:35:23;;;;;;;9.73;8.90;;;;;;;;;;525733;28;1297;-64
2023/01/23 00:35:38;;;;;;;9.10;8.30;;;;;;;;;;525850;28;1320;-63
2023/01/23 00:35:54;;;;;;;8.70;7.90;;;;;;;;;;523374;28;1275;-63
2023/01/23 00:36:10;;;;;;;9.10;8.30;;;;;;;;;;524144;28;1034;-63
2023/01/23 00:36:36;;;;;;;9.10;8.30;;;;;;;;;;524015;28;1230;-64
2023/01/23 00:36:52;;;;;;;9.23;8.43;;;;;;;;;;519893;28;1426;-63
2023/01/23 00:37:07;;;;;;;9.40;8.50;;;;;;;;;;519055;28;1331;-63
2023/01/23 00:37:22;;;;;;;9.45;8.65;;;;;;;;;;523468;28;1339;-63
2023/01/23 00:37:37;;;;;;;9.40;8.60;;;;;;;;;;521175;28;1356;-63
2023/01/23 00:37:53;;;;;;;9.40;8.60;;;;;;;;;;518859;28;1113;-63
2023/01/23 00:38:08;;;;;;;9.45;8.65;;;;;;;;;;519709;28;1496;-63
2023/01/23 00:38:23;;;;;;;9.60;8.70;;;;;;;;;;519492;28;1123;-64
2023/01/23 00:38:40;;;;;;;9.70;8.80;;;;;;;;;;518768;28;1243;-64
2023/01/23 00:38:55;;;;;;;9.70;8.80;;;;;;;;;;519796;28;1189;-64
2023/01/23 00:39:15;;;;;;;9.43;8.60;;;;;;;;;;519417;28;1197;-64
2023/01/23 00:39:31;;;;;;;9.00;8.20;;;;;;;;;;521252;28;1208;-64
2023/01/23 00:39:49;;;;;;;8.90;8.10;;;;;;;;;;523823;28;1251;-64
2023/01/23 00:40:05;;;;;;;9.20;8.30;;;;;;;;;;522962;28;1033;-64
2023/01/23 00:40:21;;;;;;;8.95;8.15;;;;;;;;;;522295;28;1133;-64
2023/01/23 00:40:36;;;;;;;8.90;8.10;;;;;;;;;;523219;28;1171;-65
2023/01/23 00:40:53;;;;;;;9.00;8.20;;;;;;;;;;521093;28;1428;-64
2023/01/23 00:41:08;;;;;;;8.70;7.90;;;;;;;;;;521886;28;1162;-64
2023/01/23 00:41:24;;;;;;;8.40;7.70;;;;;;;;;;522467;28;1069;-64
2023/01/23 00:41:39;;;;;;;8.30;7.60;;;;;;;;;;523458;28;1401;-64
2023/01/23 00:41:55;;;;;;;8.38;7.57;;;;;;;;;;523413;28;1596;-65
2023/01/23 00:42:11;;;;;;;8.30;7.60;;;;;;;;;;524153;28;1149;-64
2023/01/23 00:42:26;;;;;;;8.32;7.60;;;;;;;;;;521895;28;1403;-65
2023/01/23 00:42:41;;;;;;;8.40;7.60;;;;;;;;;;522001;28;1177;-64
2023/01/23 00:42:56;;;;;;;8.20;7.50;;;;;;;;;;521591;28;1195;-64
2023/01/23 00:43:12;;;;;;;8.37;7.67;;;;;;;;;;521495;28;1118;-64
2023/01/23 00:43:28;;;;;;;8.63;7.83;;;;;;;;;;521028;28;1197;-64
2023/01/23 00:43:45;;;;;;;8.15;7.45;;;;;;;;;;520562;28;1565;-64
2023/01/23 00:44:01;;;;;;;8.10;7.40;;;;;;;;;;522452;28;1367;-65
2023/01/23 00:44:16;;;;;;;8.70;7.90;;;;;;;;;;523435;28;1138;-64
2023/01/23 00:44:31;;;;;;;8.55;7.75;;;;;;;;;;525882;28;1510;-64
2023/01/23 00:44:47;;;;;;;8.07;7.37;;;;;;;;;;523053;28;1212;-64
2023/01/23 00:45:02;;;;;;;8.33;7.63;;;;;;;;;;524510;28;1121;-64
2023/01/23 00:45:18;;;;;;;8.70;7.90;;;;;;;;;;525341;28;951;-65
2023/01/23 00:45:34;;;;;;;8.52;7.80;;;;;;;;;;524506;28;1342;-64
2023/01/23 00:45:50;;;;;;;8.43;7.72;;;;;;;;;;525187;28;1180;-64
2023/01/23 00:46:05;;;;;;;8.67;7.87;;;;;;;;;;522176;28;1976;-64
2023/01/23 00:46:21;;;;;;;8.48;7.75;;;;;;;;;;521824;28;1193;-65
2023/01/23 00:46:36;;;;;;;8.20;7.50;;;;;;;;;;521230;28;1174;-64
2023/01/23 00:46:52;;;;;;;8.60;7.80;;;;;;;;;;521940;28;1201;-64
2023/01/23 00:47:07;;;;;;;8.90;8.10;;;;;;;;;;521229;28;1174;-64
2023/01/23 00:47:23;;;;;;;8.90;8.10;;;;;;;;;;519696;28;1413;-65
2023/01/23 00:47:38;;;;;;;8.73;7.93;;;;;;;;;;519207;28;1365;-64
2023/01/23 00:47:53;;;;;;;8.35;7.65;;;;;;;;;;519579;28;1074;-64
2023/01/23 00:48:08;;;;;;;8.50;7.80;;;;;;;;;;520523;28;1281;-64
2023/01/23 00:48:24;;;;;;;8.57;7.83;;;;;;;;;;518679;28;1112;-64
2023/01/23 00:48:39;;;;;;;8.80;8.00;;;;;;;;;;521737;28;1197;-65
2023/01/23 00:48:54;;;;;;;8.80;8.00;;;;;;;;;;523313;28;1452;-64
2023/01/23 00:49:10;;;;;;;8.60;7.90;;;;;;;;;;523870;28;1174;-64
2023/01/23 00:49:25;;;;;;;8.43;7.72;;;;;;;;;;523275;28;1505;-64
2023/01/23 00:49:40;;;;;;;8.43;7.67;;;;;;;;;;524220;28;1136;-64
2023/01/23 00:49:57;;;;;;;8.60;7.80;;;;;;;;;;525960;28;1085;-64
2023/01/23 00:50:13;;;;;;;8.80;8.00;;;;;;;;;;524866;28;1144;-64
2023/01/23 00:50:29;;;;;;;8.77;7.97;;;;;;;;;;523981;28;1200;-64
2023/01/23 00:50:45;;;;;;;8.30;7.60;;;;;;;;;;521145;28;1502;-64
2023/01/23 00:51:00;;;;;;;8.48;7.70;;;;;;;;;;523699;28;1165;-64
2023/01/23 00:51:15;;;;;;;8.97;8.17;;;;;;;;;;524402;28;1269;-64
2023/01/23 00:51:31;;;;;;;8.90;8.10;;;;;;;;;;522223;28;1266;-65
2023/01/23 00:51:47;;;;;;;8.70;7.90;;;;;;;;;;521870;28;1074;-64
2023/01/23 00:52:02;;;;;;;8.93;8.13;;;;;;;;;;523226;28;1134;-64
2023/01/23 00:52:17;;;;;;;9.20;8.40;;;;;;;;;;523499;28;1137;-64
2023/01/23 00:52:33;;;;;;;9.00;8.20;;;;;;;;;;522036;28;1270;-64
2023/01/23 00:52:48;;;;;;;9.07;8.27;;;;;;;;;;520500;28;1371;-64
2023/01/23 00:53:03;;;;;;;9.33;8.47;;;;;;;;;;518563;28;1438;-64
2023/01/23 00:53:18;;;;;;;9.10;8.30;;;;;;;;;;517725;28;1209;-65
2023/01/23 00:53:34;;;;;;;8.77;8.00;;;;;;;;;;519461;28;1153;-64
2023/01/23 00:53:49;;;;;;;8.70;7.90;;;;;;;;;;517433;28;1201;-64
2023/01/23 00:54:04;;;;;;;8.90;8.10;;;;;;;;;;518534;28;1629;-64
2023/01/23 00:54:20;;;;;;;9.00;8.20;;;;;;;;;;520590;28;1377;-64
2023/01/23 00:54:37;;;;;;;9.10;8.30;;;;;;;;;;520794;28;1223;-64
2023/01/23 00:54:52;;;;;;;9.25;8.45;;;;;;;;;;519728;28;1400;-64
2023/01/23 00:55:08;;;;;;;9.23;8.43;;;;;;;;;;521559;28;1368;-64
2023/01/23 00:55:23;;;;;;;9.20;8.40;;;;;;;;;;520553;28;1094;-64
2023/01/23 00:55:39;;;;;;;9.07;8.27;;;;;;;;;;521993;28;1185;-64
2023/01/23 00:55:54;;;;;;;9.10;8.30;;;;;;;;;;520375;28;1191;-64
2023/01/23 00:56:09;;;;;;;8.98;8.18;;;;;;;;;;521820;28;1363;-64
2023/01/23 00:56:25;;;;;;;8.97;8.17;;;;;;;;;;520885;28;1285;-64
2023/01/23 00:56:40;;;;;;;9.13;8.33;;;;;;;;;;522382;28;1123;-64
2023/01/23 00:56:56;;;;;;;9.40;8.50;;;;;;;;;;523760;28;1257;-64
2023/01/23 00:57:11;;;;;;;9.27;8.43;;;;;;;;;;524925;28;1341;-64
2023/01/23 00:57:26;;;;;;;8.73;7.93;;;;;;;;;;527376;27;1397;-64
2023/01/23 00:57:42;;;;;;;8.93;8.13;;;;;;;;;;523835;28;1295;-64
2023/01/23 00:57:57;;;;;;;9.10;8.30;;;;;;;;;;525999;28;1164;-64
2023/01/23 00:58:12;;;;;;;9.05;8.15;;;;;;;;;;523722;28;1280;-64
2023/01/23 00:58:27;;;;;;;10.13;8.33;;;;;;;;;;527427;27;1164;-64
2023/01/23 00:58:43;;;;;;;10.23;8.53;;;;;;;;;;526129;27;1153;-64
2023/01/23 00:58:58;;;;;;;9.55;8.65;;;;;;;;;;523977;28;1211;-64
2023/01/23 00:59:13;;;;;;;9.33;8.50;;;;;;;;;;523506;28;1322;-64
2023/01/23 00:59:29;;;;;;;9.20;8.37;;;;;;;;;;523952;28;1090;-64
2023/01/23 00:59:44;;;;;;;9.25;8.38;;;;;;;;;;525665;28;1038;-64
2023/01/23 00:59:59;;;;;;;9.10;8.30;;;;;;;;;;523630;28;1311;-65
2023/01/23 01:00:16;;;;;;;9.30;8.50;;;;;;;;;;522285;28;1063;-64
2023/01/23 01:00:31;;;;;;;9.35;8.50;;;;;;;;;;523943;28;1110;-64
2023/01/23 01:00:46;;;;;;;9.30;8.40;;;;;;;;;;521312;28;1175;-65
2023/01/23 01:01:01;;;;;;;9.30;8.40;;;;;;;;;;522089;28;1295;-64
2023/01/23 01:01:17;;;;;;;9.47;8.57;;;;;;;;;;521274;28;1388;-64
2023/01/23 01:01:32;;;;;;;9.30;8.50;;;;;;;;;;518520;28;1314;-64
2023/01/23 01:01:47;;;;;;;9.30;8.50;;;;;;;;;;517949;28;1306;-64
2023/01/23 01:02:02;;;;;;;9.37;8.57;;;;;;;;;;520979;28;1162;-64
2023/01/23 01:02:18;;;;;;;9.43;8.63;;;;;;;;;;519105;28;1190;-64
2023/01/23 01:02:33;;;;;;;9.27;8.47;;;;;;;;;;519390;28;1146;-64
2023/01/23 01:02:48;;;;;;;9.30;8.40;;;;;;;;;;520283;28;1231;-64
2023/01/23 01:03:05;;;;;;;9.53;8.63;;;;;;;;;;523718;28;1277;-64
2023/01/23 01:03:20;;;;;;;9.52;8.63;;;;;;;;;;523537;28;1446;-64
2023/01/23 01:03:36;;;;;;;9.60;8.70;;;;;;;;;;523141;28;1011;-64
2023/01/23 01:03:51;;;;;;;9.63;8.73;;;;;;;;;;520209;28;1238;-64
2023/01/23 01:04:06;;;;;;;9.20;8.40;;;;;;;;;;520164;28;1230;-64
2023/01/23 01:04:22;;;;;;;9.27;8.48;;;;;;;;;;518915;28;1358;-64
2023/01/23 01:04:37;;;;;;;9.60;8.70;;;;;;;;;;519934;28;1162;-64
2023/01/23 01:04:52;;;;;;;9.67;8.77;;;;;;;;;;519838;28;1430;-65
2023/01/23 01:05:08;;;;;;;9.90;9.00;;;;;;;;;;520114;28;1236;-65
2023/01/23 01:05:23;;;;;;;9.93;9.02;;;;;;;;;;519188;28;1334;-64
2023/01/23 01:05:38;;;;;;;9.77;8.87;;;;;;;;;;519608;28;1249;-64
2023/01/23 01:05:54;;;;;;;9.67;8.77;;;;;;;;;;520694;28;1242;-64
2023/01/23 01:06:10;;;;;;;9.80;8.90;;;;;;;;;;520475;28;1997;-64
2023/01/23 01:06:25;;;;;;;10.07;9.13;;;;;;;;;;519897;28;1485;-64
2023/01/23 01:06:41;;;;;;;9.68;8.77;;;;;;;;;;522073;28;1125;-64
2023/01/23 01:06:56;;;;;;;9.33;8.43;;;;;;;;;;522508;28;1205;-64
2023/01/23 01:07:11;;;;;;;9.70;8.80;;;;;;;;;;524086;28;1153;-64
2023/01/23 01:07:27;;;;;;;9.77;8.87;;;;;;;;;;523047;28;1224;-64
2023/01/23 01:07:43;;;;;;;9.63;8.73;;;;;;;;;;526319;27;1165;-64
2023/01/23 01:07:59;;;;;;;9.88;8.98;;;;;;;;;;524058;28;1377;-64
2023/01/23 01:08:14;;;;;;;10.00;9.10;;;;;;;;;;525826;28;1106;-64
2023/01/23 01:08:29;;;;;;;9.85;8.95;;;;;;;;;;525955;27;1366;-64
2023/01/23 01:08:45;;;;;;;9.47;8.60;;;;;;;;;;525342;28;1518;-64
2023/01/23 01:09:00;;;;;;;9.80;8.90;;;;;;;;;;525744;28;1065;-65
2023/01/23 01:09:16;;;;;;;10.07;9.13;;;;;;;;;;525564;28;1188;-65
2023/01/23 01:09:31;;;;;;;10.23;9.23;;;;;;;;;;523859;28;1293;-64
2023/01/23 01:09:46;;;;;;;10.13;9.23;;;;;;;;;;522285;28;1210;-64
2023/01/23 01:10:01;;;;;;;10.17;9.27;;;;;;;;;;523792;28;1409;-64
2023/01/23 01:10:17;;;;;;;10.20;9.30;;;;;;;;;;521302;28;1204;-64
2023/01/23 01:10:33;;;;;;;10.02;9.13;;;;;;;;;;522388;28;1239;-65
2023/01/23 01:10:49;;;;;;;10.13;9.23;;;;;;;;;;522191;28;1503;-64
2023/01/23 01:11:04;;;;;;;10.27;9.38;;;;;;;;;;520066;28;1094;-64
2023/01/23 01:11:20;;;;;;;10.13;9.23;;;;;;;;;;520662;28;1297;-64
2023/01/23 01:11:35;;;;;;;10.20;9.30;;;;;;;;;;521974;28;1232;-65
2023/01/23 01:11:50;;;;;;;10.50;9.57;;;;;;;;;;521931;28;1070;-64
2023/01/23 01:12:06;;;;;;;10.60;9.63;;;;;;;;;;521682;28;1369;-64
2023/01/23 01:12:21;;;;;;;10.47;9.47;;;;;;;;;;522287;28;1162;-64
2023/01/23 01:12:37;;;;;;;10.50;9.50;;;;;;;;;;522862;28;1170;-64
2023/01/23 01:12:52;;;;;;;10.73;9.73;;;;;;;;;;524888;28;1153;-64
2023/01/23 01:13:09;;;;;;;10.93;9.93;;;;;;;;;;525407;28;1344;-64
2023/01/23 01:13:24;;;;;;;10.80;9.77;;;;;;;;;;522959;28;1370;-64
2023/01/23 01:13:39;;;;;;;10.40;9.40;;;;;;;;;;523148;28;1137;-64
2023/01/23 01:13:55;;;;;;;10.48;9.48;;;;;;;;;;523063;28;1450;-64
2023/01/23 01:14:10;;;;;;;10.57;9.60;;;;;;;;;;523479;28;1309;-64
2023/01/23 01:14:25;;;;;;;10.67;9.77;;;;;;;;;;522413;28;1151;-63
2023/01/23 01:14:41;;;;;;;10.25;9.35;;;;;;;;;;523221;28;1243;-64
2023/01/23 01:14:56;;;;;;;10.20;9.30;;;;;;;;;;523942;28;1094;-64
2023/01/23 01:15:12;;;;;;;10.40;9.50;;;;;;;;;;525000;28;1516;-64
2023/01/23 01:15:29;;;;;;;10.10;9.20;;;;;;;;;;527421;27;1244;-64
2023/01/23 01:15:44;;;;;;;10.55;9.55;;;;;;;;;;528140;27;1040;-65
2023/01/23 01:16:00;;;;;;;10.67;9.67;;;;;;;;;;527968;27;1066;-64
2023/01/23 01:16:16;;;;;;;10.55;9.55;;;;;;;;;;526961;27;1307;-64
2023/01/23 01:16:31;;;;;;;10.53;9.53;;;;;;;;;;528205;27;1131;-64
2023/01/23 01:16:47;;;;;;;10.43;9.53;;;;;;;;;;525869;27;1125;-64
2023/01/23 01:17:02;;;;;;;10.52;9.63;;;;;;;;;;524530;28;1206;-64
2023/01/23 01:17:17;;;;;;;10.52;9.63;;;;;;;;;;524035;28;1285;-65
2023/01/23 01:17:33;;;;;;;10.53;9.63;;;;;;;;;;521883;28;1203;-64
2023/01/23 01:17:49;;;;;;;10.70;9.80;;;;;;;;;;520826;28;1222;-65
2023/01/23 01:18:04;;;;;;;10.73;9.73;;;;;;;;;;520218;28;1261;-64
2023/01/23 01:18:21;;;;;;;10.57;9.57;;;;;;;;;;521612;28;1321;-64
2023/01/23 01:18:37;;;;;;;10.75;9.75;;;;;;;;;;521081;28;1172;-64
2023/01/23 01:18:52;;;;;;;10.63;9.70;;;;;;;;;;520919;28;1489;-65
2023/01/23 01:19:08;;;;;;;10.50;9.60;;;;;;;;;;521836;28;1131;-64
2023/01/23 01:19:23;;;;;;;10.67;9.73;;;;;;;;;;522095;28;1057;-65
2023/01/23 01:19:38;;;;;;;10.73;9.73;;;;;;;;;;523013;28;1278;-64
2023/01/23 01:19:54;;;;;;;10.70;9.70;;;;;;;;;;521893;28;1328;-65
2023/01/23 01:20:09;;;;;;;10.47;9.47;;;;;;;;;;522458;28;1500;-63
2023/01/23 01:20:27;;;;;;;10.32;9.40;;;;;;;;;;522742;28;1133;-65
2023/01/23 01:20:43;;;;;;;10.60;9.60;;;;;;;;;;522283;28;1469;-64
2023/01/23 01:20:59;;;;;;;10.35;9.45;;;;;;;;;;521383;28;1447;-64
2023/01/23 01:21:15;;;;;;;10.60;9.65;;;;;;;;;;520112;28;1050;-65
2023/01/23 01:21:31;;;;;;;11.27;10.27;;;;;;;;;;518816;28;1235;-64
2023/01/23 01:21:46;;;;;;;11.45;10.45;;;;;;;;;;519902;28;1082;-64
2023/01/23 01:22:02;;;;;;;11.47;10.47;;;;;;;;;;519457;28;1267;-64
2023/01/23 01:22:17;;;;;;;11.23;10.23;;;;;;;;;;518427;28;1177;-64
2023/01/23 01:22:33;;;;;;;10.90;9.90;;;;;;;;;;519797;28;1215;-64
2023/01/23 01:22:49;;;;;;;11.15;10.15;;;;;;;;;;520981;28;1360;-64
2023/01/23 01:23:05;;;;;;;10.90;9.90;;;;;;;;;;520670;28;1315;-65
2023/01/23 01:23:20;;;;;;;10.80;9.80;;;;;;;;;;520328;28;1201;-65
2023/01/23 01:23:36;;;;;;;10.80;9.80;;;;;;;;;;522911;28;1160;-65
2023/01/23 01:23:52;;;;;;;10.88;9.88;;;;;;;;;;520854;28;1291;-64
2023/01/23 01:24:08;;;;;;;11.18;10.18;;;;;;;;;;521257;28;1148;-65
2023/01/23 01:24:25;;;;;;;11.27;10.27;;;;;;;;;;520858;28;1074;-64
2023/01/23 01:24:41;;;;;;;11.30;10.30;;;;;;;;;;523083;28;1129;-64
2023/01/23 01:24:56;;;;;;;11.40;10.40;;;;;;;;;;527118;27;1116;-64
2023/01/23 01:25:12;;;;;;;11.60;10.50;;;;;;;;;;524777;28;1295;-65
2023/01/23 01:25:27;;;;;;;11.25;10.25;;;;;;;;;;524037;28;1125;-64
2023/01/23 01:25:42;;;;;;;11.30;10.30;;;;;;;;;;525914;28;1029;-64
2023/01/23 01:25:59;;;;;;;11.53;10.50;;;;;;;;;;523904;28;1364;-64
2023/01/23 01:26:14;;;;;;;11.70;10.60;;;;;;;;;;523169;28;1914;-64
2023/01/23 01:26:29;;;;;;;11.83;10.73;;;;;;;;;;521112;28;1210;-64
2023/01/23 01:26:45;;;;;;;11.77;10.70;;;;;;;;;;521556;28;1030;-64
2023/01/23 01:27:00;;;;;;;11.93;10.83;;;;;;;;;;520872;28;1144;-64
2023/01/23 01:27:15;;;;;;;12.00;10.90;;;;;;;;;;521361;28;1345;-65
2023/01/23 01:27:31;;;;;;;11.98;10.88;;;;;;;;;;521029;28;1066;-64
2023/01/23 01:27:46;;;;;;;12.03;10.93;;;;;;;;;;521862;28;1378;-64
2023/01/23 01:28:02;;;;;;;11.95;10.85;;;;;;;;;;521722;28;1360;-64
2023/01/23 01:28:17;;;;;;;11.73;10.63;;;;;;;;;;521712;28;1542;-64
2023/01/23 01:28:34;;;;;;;11.65;10.55;;;;;;;;;;523651;28;1106;-65
2023/01/23 01:28:50;;;;;;;11.70;10.65;;;;;;;;;;522576;28;1181;-64
2023/01/23 01:29:05;;;;;;;11.67;10.60;;;;;;;;;;521875;28;1387;-65
2023/01/23 01:29:20;;;;;;;11.45;10.45;;;;;;;;;;519367;28;1326;-64
2023/01/23 01:29:35;;;;;;;11.30;10.30;;;;;;;;;;519287;28;1329;-64
2023/01/23 01:29:51;;;;;;;11.37;10.37;;;;;;;;;;520444;28;1344;-65
2023/01/23 01:30:08;;;;;;;11.52;10.43;;;;;;;;;;519222;28;1627;-64
2023/01/23 01:30:28;;;;;;;11.60;10.50;;;;;;;;;;522506;28;1137;-65
2023/01/23 01:30:43;;;;;;;11.80;10.70;;;;;;;;;;521547;28;1290;-64
2023/01/23 01:31:04;;;;;;;11.95;10.85;;;;;;;;;;517676;28;1184;-64
2023/01/23 01:31:19;;;;;;;11.98;10.88;;;;;;;;;;520348;28;1066;-65
2023/01/23 01:31:34;;;;;;;12.00;10.90;;;;;;;;;;520835;28;1130;-64
2023/01/23 01:31:49;;;;;;;11.90;10.80;;;;;;;;;;521687;28;1228;-65
2023/01/23 01:32:05;;;;;;;12.20;11.10;;;;;;;;;;522576;28;1001;-64
2023/01/23 01:32:20;;;;;;;12.65;11.45;;;;;;;;;;522905;28;1237;-65
2023/01/23 01:32:39;;;;;;;12.27;11.17;;;;;;;;;;521752;28;1389;-64
2023/01/23 01:32:55;;;;;;;12.30;11.20;;;;;;;;;;525473;28;1266;-64
2023/01/23 01:33:11;;;;;;;12.20;11.15;;;;;;;;;;524652;28;1256;-64
2023/01/23 01:33:27;;;;;;;11.68;10.68;;;;;;;;;;523334;28;1372;-64
2023/01/23 01:33:43;;;;;;;11.80;10.73;;;;;;;;;;523624;28;1200;-64
2023/01/23 01:33:58;;;;;;;12.18;11.07;;;;;;;;;;523181;28;1198;-65
2023/01/23 01:34:13;;;;;;;12.17;10.97;;;;;;;;;;522016;28;1287;-65
2023/01/23 01:34:29;;;;;;;12.23;11.10;;;;;;;;;;521405;28;1461;-64
2023/01/23 01:34:44;;;;;;;12.40;11.23;;;;;;;;;;521218;28;1347;-64
2023/01/23 01:35:00;;;;;;;12.07;10.97;;;;;;;;;;521017;28;1046;-65
2023/01/23 01:35:15;;;;;;;12.10;11.00;;;;;;;;;;521617;28;1219;-64
2023/01/23 01:35:30;;;;;;;12.20;11.10;;;;;;;;;;520276;28;1296;-64
2023/01/23 01:35:46;;;;;;;12.10;11.00;;;;;;;;;;518619;28;1274;-64
2023/01/23 01:36:01;;;;;;;12.15;11.05;;;;;;;;;;519261;28;1115;-64